VIR47E EGJJ-EGCC
Flight info
| Callsign | VIR47E |
|---|---|
| Flight time | 0h 55m |
| Altitude | 34000 |
| Route | BENIX G27 AKIKI UN867 AVANT UM184 HEMEL T420 ELVOS |
| Aircraft | A320/M-SDE3FGHIRWY/LB1 |
Departure
| Time | 2026-05-06 17:45 |
|---|---|
| Airport | Jersey Airport (EGJJ) |
Arrival
| Time | 2026-05-06 18:40 |
|---|---|
| Airport | Manchester Airport (EGCC) |
| Time | Latitude | Longitude | Altitude | Speed | Heading |
|---|---|---|---|---|---|
| 2026-05-06 17:25 | 49.20484 | -2.19843 | 284 ft | 0 kts | 350° |
| 2026-05-06 17:36 | 49.20459 | -2.19836 | 280 ft | 4 kts | 346° |
| 2026-05-06 17:36 | 49.20435 | -2.19822 | 286 ft | 4 kts | 313° |
| 2026-05-06 17:36 | 49.20428 | -2.19803 | 285 ft | 1 kts | 283° |
| 2026-05-06 17:36 | 49.20427 | -2.19800 | 285 ft | 0 kts | 283° |
| 2026-05-06 17:38 | 49.20428 | -2.19807 | 280 ft | 0 kts | 283° |
| 2026-05-06 17:38 | 49.20433 | -2.19840 | 283 ft | 7 kts | 282° |
| 2026-05-06 17:39 | 49.20452 | -2.19899 | 283 ft | 6 kts | 322° |
| 2026-05-06 17:39 | 49.20483 | -2.19919 | 283 ft | 4 kts | 342° |
| 2026-05-06 17:39 | 49.20505 | -2.19943 | 284 ft | 6 kts | 315° |
| 2026-05-06 17:39 | 49.20518 | -2.19993 | 280 ft | 5 kts | 287° |
| 2026-05-06 17:40 | 49.20537 | -2.20087 | 282 ft | 14 kts | 287° |
| 2026-05-06 17:40 | 49.20565 | -2.20223 | 280 ft | 13 kts | 287° |
| 2026-05-06 17:40 | 49.20588 | -2.20343 | 280 ft | 11 kts | 286° |
| 2026-05-06 17:40 | 49.20609 | -2.20449 | 280 ft | 10 kts | 286° |
| 2026-05-06 17:41 | 49.20620 | -2.20516 | 284 ft | 0 kts | 283° |
| 2026-05-06 17:43 | 49.20621 | -2.20524 | 283 ft | 3 kts | 282° |
| 2026-05-06 17:43 | 49.20627 | -2.20602 | 280 ft | 12 kts | 272° |
| 2026-05-06 17:44 | 49.20667 | -2.20687 | 279 ft | 10 kts | 7° |
| 2026-05-06 17:44 | 49.20710 | -2.20606 | 278 ft | 11 kts | 73° |
| 2026-05-06 17:44 | 49.20730 | -2.20341 | 279 ft | 58 kts | 82° |
| 2026-05-06 17:44 | 49.20815 | -2.19304 | 285 ft | 134 kts | 83° |
| 2026-05-06 17:45 | 49.20955 | -2.17701 | 722 ft | 155 kts | 82° |
| 2026-05-06 17:45 | 49.21098 | -2.16083 | 1678 ft | 147 kts | 81° |
| 2026-05-06 17:45 | 49.21249 | -2.14468 | 2066 ft | 164 kts | 81° |
| 2026-05-06 17:45 | 49.21433 | -2.12646 | 2418 ft | 181 kts | 81° |
| 2026-05-06 17:46 | 49.21635 | -2.10641 | 2752 ft | 199 kts | 81° |
| 2026-05-06 17:46 | 49.21841 | -2.08469 | 3230 ft | 214 kts | 82° |
| 2026-05-06 17:46 | 49.22048 | -2.06141 | 3760 ft | 228 kts | 81° |
| 2026-05-06 17:46 | 49.22574 | -2.03798 | 4294 ft | 242 kts | 54° |
| 2026-05-06 17:47 | 49.23748 | -2.01871 | 4886 ft | 255 kts | 45° |
| 2026-05-06 17:47 | 49.24999 | -1.99843 | 5435 ft | 267 kts | 46° |
| 2026-05-06 17:47 | 49.26262 | -1.97707 | 5908 ft | 272 kts | 47° |
| 2026-05-06 17:47 | 49.27531 | -1.95537 | 6392 ft | 274 kts | 47° |
| 2026-05-06 17:48 | 49.28805 | -1.93338 | 6886 ft | 278 kts | 47° |
| 2026-05-06 17:48 | 49.30094 | -1.91123 | 7410 ft | 280 kts | 47° |
| 2026-05-06 17:48 | 49.31400 | -1.88892 | 7929 ft | 283 kts | 46° |
| 2026-05-06 17:48 | 49.32725 | -1.86643 | 8467 ft | 286 kts | 46° |
| 2026-05-06 17:49 | 49.34065 | -1.84370 | 9001 ft | 289 kts | 46° |
| 2026-05-06 17:49 | 49.35415 | -1.82068 | 9539 ft | 292 kts | 46° |
| 2026-05-06 17:49 | 49.36778 | -1.79737 | 10060 ft | 295 kts | 46° |
| 2026-05-06 17:49 | 49.38167 | -1.77358 | 10561 ft | 306 kts | 46° |
| 2026-05-06 17:50 | 49.39617 | -1.74879 | 11070 ft | 318 kts | 46° |
| 2026-05-06 17:50 | 49.41123 | -1.72305 | 11574 ft | 330 kts | 46° |
| 2026-05-06 17:50 | 49.42680 | -1.69642 | 12091 ft | 340 kts | 46° |
| 2026-05-06 17:50 | 49.44284 | -1.66896 | 12614 ft | 350 kts | 47° |
| 2026-05-06 17:51 | 49.45931 | -1.64074 | 13150 ft | 359 kts | 47° |
| 2026-05-06 17:51 | 49.47618 | -1.61181 | 13698 ft | 367 kts | 47° |
| 2026-05-06 17:51 | 49.49330 | -1.58237 | 14181 ft | 371 kts | 47° |
| 2026-05-06 17:51 | 49.51033 | -1.55302 | 14668 ft | 375 kts | 47° |
| 2026-05-06 17:52 | 49.52772 | -1.52297 | 15166 ft | 377 kts | 47° |
| 2026-05-06 17:52 | 49.54523 | -1.49268 | 15673 ft | 380 kts | 47° |
| 2026-05-06 17:52 | 49.56348 | -1.46311 | 16183 ft | 382 kts | 40° |
| 2026-05-06 17:52 | 49.58513 | -1.43928 | 16704 ft | 384 kts | 28° |
| 2026-05-06 17:53 | 49.60956 | -1.42255 | 17238 ft | 386 kts | 17° |
| 2026-05-06 17:53 | 49.63575 | -1.41334 | 17775 ft | 387 kts | 5° |
| 2026-05-06 17:53 | 49.66269 | -1.41045 | 18320 ft | 390 kts | 1° |
| 2026-05-06 17:53 | 49.68989 | -1.40811 | 18797 ft | 393 kts | 1° |
| 2026-05-06 17:54 | 49.71729 | -1.40569 | 19289 ft | 396 kts | 1° |
| 2026-05-06 17:54 | 49.74484 | -1.40324 | 19776 ft | 398 kts | 2° |
| 2026-05-06 17:54 | 49.77259 | -1.40076 | 20280 ft | 401 kts | 2° |
| 2026-05-06 17:54 | 49.80050 | -1.39827 | 20790 ft | 403 kts | 2° |
| 2026-05-06 17:55 | 49.82799 | -1.39581 | 21297 ft | 405 kts | 2° |
| 2026-05-06 17:55 | 49.85610 | -1.39328 | 21822 ft | 406 kts | 2° |
| 2026-05-06 17:55 | 49.88436 | -1.39073 | 22357 ft | 408 kts | 2° |
| 2026-05-06 17:55 | 49.91269 | -1.38816 | 22902 ft | 408 kts | 2° |
| 2026-05-06 17:56 | 49.94107 | -1.38558 | 23456 ft | 409 kts | 2° |
| 2026-05-06 17:56 | 49.96947 | -1.38304 | 23944 ft | 409 kts | 2° |
| 2026-05-06 17:56 | 49.99787 | -1.38035 | 24419 ft | 409 kts | 4° |
| 2026-05-06 17:56 | 50.02605 | -1.37413 | 24899 ft | 409 kts | 7° |
| 2026-05-06 17:57 | 50.05412 | -1.36723 | 25392 ft | 408 kts | 7° |
| 2026-05-06 17:57 | 50.08212 | -1.36026 | 25889 ft | 407 kts | 7° |
| 2026-05-06 17:57 | 50.11004 | -1.35327 | 26403 ft | 406 kts | 8° |
| 2026-05-06 17:57 | 50.13785 | -1.34626 | 26923 ft | 404 kts | 8° |
| 2026-05-06 17:58 | 50.16521 | -1.33932 | 27435 ft | 403 kts | 8° |
| 2026-05-06 17:58 | 50.19317 | -1.33226 | 27985 ft | 401 kts | 7° |
| 2026-05-06 17:58 | 50.22029 | -1.32551 | 28525 ft | 399 kts | 8° |
| 2026-05-06 17:58 | 50.24759 | -1.31879 | 29076 ft | 396 kts | 7° |
| 2026-05-06 17:59 | 50.27474 | -1.31206 | 29650 ft | 394 kts | 7° |
| 2026-05-06 17:59 | 50.30167 | -1.30534 | 30205 ft | 391 kts | 8° |
| 2026-05-06 17:59 | 50.32840 | -1.29865 | 30693 ft | 387 kts | 7° |
| 2026-05-06 17:59 | 50.35490 | -1.29203 | 31196 ft | 384 kts | 7° |
| 2026-05-06 18:00 | 50.38116 | -1.28546 | 31709 ft | 380 kts | 7° |
| 2026-05-06 18:00 | 50.40713 | -1.27891 | 32231 ft | 376 kts | 7° |
| 2026-05-06 18:00 | 50.43283 | -1.27238 | 32768 ft | 372 kts | 7° |
| 2026-05-06 18:00 | 50.45825 | -1.26591 | 33189 ft | 371 kts | 7° |
| 2026-05-06 18:01 | 50.48360 | -1.25743 | 33465 ft | 374 kts | 14° |
| 2026-05-06 18:01 | 50.50829 | -1.24397 | 33726 ft | 378 kts | 21° |
| 2026-05-06 18:01 | 50.53194 | -1.22550 | 33929 ft | 383 kts | 28° |
| 2026-05-06 18:01 | 50.55477 | -1.20309 | 33974 ft | 391 kts | 30° |
| 2026-05-06 18:02 | 50.60172 | -1.15651 | 33981 ft | 407 kts | 30° |
| 2026-05-06 18:02 | 50.65048 | -1.10819 | 34002 ft | 422 kts | 30° |
| 2026-05-06 18:03 | 50.70099 | -1.05796 | 33988 ft | 437 kts | 30° |
| 2026-05-06 18:03 | 50.75311 | -1.00576 | 33992 ft | 450 kts | 31° |
| 2026-05-06 18:04 | 50.80649 | -0.95268 | 33986 ft | 455 kts | 27° |
| 2026-05-06 18:04 | 50.86475 | -0.91526 | 33990 ft | 451 kts | 16° |
| 2026-05-06 18:05 | 50.92451 | -0.88451 | 33991 ft | 452 kts | 16° |
| 2026-05-06 18:05 | 50.98434 | -0.85357 | 33990 ft | 452 kts | 16° |
| 2026-05-06 18:06 | 51.04416 | -0.82243 | 33995 ft | 453 kts | 16° |
| 2026-05-06 18:06 | 51.10403 | -0.79122 | 34006 ft | 453 kts | 16° |
| 2026-05-06 18:07 | 51.16387 | -0.75990 | 34007 ft | 453 kts | 16° |
| 2026-05-06 18:07 | 51.22372 | -0.72856 | 34003 ft | 453 kts | 16° |
| 2026-05-06 18:08 | 51.28358 | -0.69714 | 34006 ft | 453 kts | 16° |
| 2026-05-06 18:08 | 51.34337 | -0.66567 | 34018 ft | 453 kts | 16° |
| 2026-05-06 18:09 | 51.40333 | -0.63400 | 34003 ft | 454 kts | 16° |
| 2026-05-06 18:09 | 51.46333 | -0.60235 | 34001 ft | 454 kts | 16° |
| 2026-05-06 18:10 | 51.52334 | -0.57050 | 34006 ft | 454 kts | 16° |
| 2026-05-06 18:10 | 51.58340 | -0.53857 | 34012 ft | 455 kts | 16° |
| 2026-05-06 18:11 | 51.63333 | -0.51184 | 34007 ft | 455 kts | 16° |
| 2026-05-06 18:11 | 51.70323 | -0.47434 | 34056 ft | 456 kts | 16° |
| 2026-05-06 18:12 | 51.76426 | -0.44885 | 34055 ft | 451 kts | 2° |
| 2026-05-06 18:12 | 51.82602 | -0.45516 | 33871 ft | 445 kts | 343° |
| 2026-05-06 18:13 | 51.85533 | -0.47037 | 33592 ft | 441 kts | 333° |
| 2026-05-06 18:13 | 51.88238 | -0.49351 | 33313 ft | 439 kts | 326° |
| 2026-05-06 18:13 | 51.90857 | -0.51906 | 33037 ft | 440 kts | 326° |
| 2026-05-06 18:13 | 51.93479 | -0.54476 | 32770 ft | 441 kts | 326° |
| 2026-05-06 18:14 | 51.96104 | -0.57048 | 32503 ft | 441 kts | 326° |
| 2026-05-06 18:14 | 51.98734 | -0.59622 | 32240 ft | 442 kts | 326° |
| 2026-05-06 18:14 | 52.01368 | -0.62199 | 31980 ft | 442 kts | 326° |
| 2026-05-06 18:14 | 52.04005 | -0.64785 | 31711 ft | 443 kts | 326° |
| 2026-05-06 18:15 | 52.06644 | -0.67376 | 31463 ft | 443 kts | 326° |
| 2026-05-06 18:15 | 52.09285 | -0.69971 | 31204 ft | 444 kts | 326° |
| 2026-05-06 18:15 | 52.11924 | -0.72568 | 30954 ft | 444 kts | 326° |
| 2026-05-06 18:15 | 52.14570 | -0.75172 | 30707 ft | 444 kts | 326° |
| 2026-05-06 18:16 | 52.17219 | -0.77780 | 30453 ft | 445 kts | 326° |
| 2026-05-06 18:16 | 52.19867 | -0.80394 | 30210 ft | 446 kts | 326° |
| 2026-05-06 18:16 | 52.22519 | -0.83023 | 29949 ft | 446 kts | 326° |
| 2026-05-06 18:16 | 52.25171 | -0.85657 | 29659 ft | 447 kts | 326° |
| 2026-05-06 18:17 | 52.27828 | -0.88295 | 29370 ft | 447 kts | 326° |
| 2026-05-06 18:17 | 52.30487 | -0.90937 | 29115 ft | 447 kts | 326° |
| 2026-05-06 18:17 | 52.33148 | -0.93582 | 28831 ft | 448 kts | 326° |
| 2026-05-06 18:17 | 52.35810 | -0.96232 | 28547 ft | 448 kts | 326° |
| 2026-05-06 18:18 | 52.38455 | -0.98872 | 27978 ft | 443 kts | 326° |
| 2026-05-06 18:18 | 52.41067 | -1.01480 | 27305 ft | 436 kts | 326° |
| 2026-05-06 18:18 | 52.43639 | -1.04055 | 26624 ft | 431 kts | 326° |
| 2026-05-06 18:18 | 52.46181 | -1.06607 | 25965 ft | 426 kts | 327° |
| 2026-05-06 18:19 | 52.48697 | -1.09136 | 25316 ft | 422 kts | 327° |
| 2026-05-06 18:19 | 52.51190 | -1.11646 | 24656 ft | 419 kts | 327° |
| 2026-05-06 18:19 | 52.53662 | -1.14141 | 24006 ft | 416 kts | 327° |
| 2026-05-06 18:19 | 52.56122 | -1.16623 | 23324 ft | 413 kts | 327° |
| 2026-05-06 18:20 | 52.58527 | -1.19048 | 22682 ft | 409 kts | 327° |
| 2026-05-06 18:20 | 52.60937 | -1.21480 | 22091 ft | 404 kts | 327° |
| 2026-05-06 18:20 | 52.63320 | -1.23885 | 21522 ft | 399 kts | 327° |
| 2026-05-06 18:20 | 52.65675 | -1.26266 | 20962 ft | 395 kts | 327° |
| 2026-05-06 18:21 | 52.68004 | -1.28630 | 20443 ft | 391 kts | 327° |
| 2026-05-06 18:21 | 52.70307 | -1.30971 | 19928 ft | 387 kts | 327° |
| 2026-05-06 18:21 | 52.71830 | -1.32521 | 19540 ft | 389 kts | 327° |
| 2026-05-06 18:21 | 52.74905 | -1.35657 | 18821 ft | 388 kts | 327° |
| 2026-05-06 18:22 | 52.76421 | -1.37206 | 18443 ft | 387 kts | 327° |
| 2026-05-06 18:22 | 52.78708 | -1.39539 | 17797 ft | 386 kts | 327° |
| 2026-05-06 18:22 | 52.80981 | -1.41853 | 17241 ft | 382 kts | 327° |
| 2026-05-06 18:22 | 52.83236 | -1.44156 | 16668 ft | 380 kts | 327° |
| 2026-05-06 18:23 | 52.85474 | -1.46445 | 16115 ft | 377 kts | 327° |
| 2026-05-06 18:23 | 52.87697 | -1.48723 | 15553 ft | 375 kts | 327° |
| 2026-05-06 18:23 | 52.89906 | -1.50991 | 14998 ft | 372 kts | 327° |
| 2026-05-06 18:23 | 52.92097 | -1.53244 | 14442 ft | 370 kts | 327° |
| 2026-05-06 18:24 | 52.94275 | -1.55486 | 13895 ft | 368 kts | 327° |
| 2026-05-06 18:24 | 52.96440 | -1.57719 | 13306 ft | 365 kts | 327° |
| 2026-05-06 18:24 | 52.98580 | -1.59933 | 12768 ft | 360 kts | 327° |
| 2026-05-06 18:24 | 53.00691 | -1.62119 | 12359 ft | 353 kts | 327° |
| 2026-05-06 18:25 | 53.02727 | -1.64228 | 12228 ft | 338 kts | 327° |
| 2026-05-06 18:25 | 53.04666 | -1.66296 | 12087 ft | 324 kts | 323° |
| 2026-05-06 18:25 | 53.06306 | -1.68752 | 11964 ft | 311 kts | 311° |
| 2026-05-06 18:25 | 53.07688 | -1.71436 | 11832 ft | 300 kts | 310° |
| 2026-05-06 18:26 | 53.09024 | -1.74027 | 11681 ft | 290 kts | 310° |
| 2026-05-06 18:26 | 53.10262 | -1.76629 | 11536 ft | 285 kts | 302° |
| 2026-05-06 18:26 | 53.11124 | -1.79596 | 11324 ft | 287 kts | 289° |
| 2026-05-06 18:26 | 53.11632 | -1.82820 | 10897 ft | 288 kts | 284° |
| 2026-05-06 18:27 | 53.12106 | -1.86048 | 10494 ft | 288 kts | 284° |
| 2026-05-06 18:27 | 53.12578 | -1.89267 | 10193 ft | 284 kts | 284° |
| 2026-05-06 18:27 | 53.13046 | -1.92474 | 9752 ft | 284 kts | 284° |
| 2026-05-06 18:27 | 53.13517 | -1.95684 | 9322 ft | 283 kts | 284° |
| 2026-05-06 18:28 | 53.13981 | -1.98841 | 9021 ft | 279 kts | 285° |
| 2026-05-06 18:28 | 53.14439 | -2.01965 | 8636 ft | 277 kts | 284° |
| 2026-05-06 18:28 | 53.14894 | -2.05067 | 8211 ft | 275 kts | 284° |
| 2026-05-06 18:28 | 53.15347 | -2.08157 | 7805 ft | 274 kts | 284° |
| 2026-05-06 18:29 | 53.15796 | -2.11230 | 7409 ft | 272 kts | 284° |
| 2026-05-06 18:29 | 53.16239 | -2.14281 | 7025 ft | 270 kts | 284° |
| 2026-05-06 18:29 | 53.16680 | -2.17315 | 6647 ft | 268 kts | 284° |
| 2026-05-06 18:29 | 53.17118 | -2.20327 | 6256 ft | 266 kts | 284° |
| 2026-05-06 18:30 | 53.17552 | -2.23319 | 5825 ft | 265 kts | 284° |
| 2026-05-06 18:30 | 53.17984 | -2.26307 | 5372 ft | 265 kts | 284° |
| 2026-05-06 18:30 | 53.18414 | -2.29291 | 4916 ft | 265 kts | 283° |
| 2026-05-06 18:30 | 53.18847 | -2.32300 | 4381 ft | 268 kts | 283° |
| 2026-05-06 18:31 | 53.19277 | -2.35285 | 4172 ft | 258 kts | 283° |
| 2026-05-06 18:31 | 53.19684 | -2.38117 | 4066 ft | 245 kts | 283° |
| 2026-05-06 18:31 | 53.20071 | -2.40812 | 4023 ft | 236 kts | 283° |
| 2026-05-06 18:31 | 53.20453 | -2.43466 | 4026 ft | 235 kts | 283° |
| 2026-05-06 18:32 | 53.20834 | -2.46116 | 4028 ft | 235 kts | 283° |
| 2026-05-06 18:32 | 53.21214 | -2.48759 | 4033 ft | 234 kts | 284° |
| 2026-05-06 18:32 | 53.21595 | -2.51400 | 4038 ft | 234 kts | 283° |
| 2026-05-06 18:32 | 53.21972 | -2.54036 | 4030 ft | 234 kts | 283° |
| 2026-05-06 18:33 | 53.22349 | -2.56680 | 4026 ft | 234 kts | 283° |
| 2026-05-06 18:33 | 53.22723 | -2.59294 | 4027 ft | 235 kts | 283° |
| 2026-05-06 18:33 | 53.23029 | -2.61913 | 4019 ft | 223 kts | 269° |
| 2026-05-06 18:33 | 53.22617 | -2.64322 | 4023 ft | 212 kts | 233° |
| 2026-05-06 18:34 | 53.21500 | -2.65878 | 3657 ft | 215 kts | 200° |
| 2026-05-06 18:34 | 53.20034 | -2.66102 | 3125 ft | 213 kts | 163° |
| 2026-05-06 18:34 | 53.18860 | -2.64811 | 3004 ft | 203 kts | 124° |
| 2026-05-06 18:34 | 53.18419 | -2.62616 | 3011 ft | 204 kts | 88° |
| 2026-05-06 18:35 | 53.18876 | -2.60424 | 3011 ft | 205 kts | 54° |
| 2026-05-06 18:35 | 53.19763 | -2.58603 | 3002 ft | 204 kts | 51° |
| 2026-05-06 18:35 | 53.20676 | -2.56771 | 3006 ft | 206 kts | 51° |
| 2026-05-06 18:35 | 53.21585 | -2.54925 | 3009 ft | 205 kts | 52° |
| 2026-05-06 18:36 | 53.22483 | -2.53090 | 3006 ft | 203 kts | 52° |
| 2026-05-06 18:36 | 53.23370 | -2.51274 | 3009 ft | 199 kts | 53° |
| 2026-05-06 18:36 | 53.24241 | -2.49490 | 2985 ft | 198 kts | 54° |
| 2026-05-06 18:36 | 53.25105 | -2.47717 | 2768 ft | 196 kts | 52° |
| 2026-05-06 18:37 | 53.25956 | -2.45973 | 2511 ft | 191 kts | 53° |
| 2026-05-06 18:37 | 53.26781 | -2.44280 | 2261 ft | 185 kts | 53° |
| 2026-05-06 18:37 | 53.27583 | -2.42633 | 2011 ft | 180 kts | 53° |
| 2026-05-06 18:37 | 53.28367 | -2.41021 | 1770 ft | 176 kts | 53° |
| 2026-05-06 18:38 | 53.29115 | -2.39484 | 1523 ft | 164 kts | 53° |
| 2026-05-06 18:38 | 53.29798 | -2.38079 | 1317 ft | 147 kts | 53° |
| 2026-05-06 18:38 | 53.30426 | -2.36788 | 1108 ft | 139 kts | 54° |
| 2026-05-06 18:38 | 53.31032 | -2.35549 | 870 ft | 137 kts | 55° |
| 2026-05-06 18:39 | 53.31625 | -2.34317 | 698 ft | 137 kts | 53° |
| 2026-05-06 18:39 | 53.32216 | -2.33067 | 592 ft | 138 kts | 53° |
| 2026-05-06 18:39 | 53.32822 | -2.31834 | 378 ft | 136 kts | 53° |
| 2026-05-06 18:40 | 53.33890 | -2.29616 | 233 ft | 86 kts | 53° |
| 2026-05-06 18:40 | 53.34188 | -2.29020 | 233 ft | 55 kts | 51° |
| 2026-05-06 18:40 | 53.34372 | -2.28660 | 229 ft | 36 kts | 42° |
| 2026-05-06 18:40 | 53.34565 | -2.28499 | 232 ft | 21 kts | 22° |
| 2026-05-06 18:41 | 53.34705 | -2.28397 | 233 ft | 22 kts | 34° |
| 2026-05-06 18:41 | 53.34809 | -2.28199 | 233 ft | 23 kts | 51° |
| 2026-05-06 18:41 | 53.34894 | -2.28021 | 233 ft | 12 kts | 51° |
| 2026-05-06 18:41 | 53.34955 | -2.27975 | 233 ft | 10 kts | 339° |
| 2026-05-06 18:42 | 53.35035 | -2.28069 | 232 ft | 19 kts | 321° |
| 2026-05-06 18:42 | 53.35150 | -2.28195 | 233 ft | 15 kts | 356° |
| 2026-05-06 18:42 | 53.35249 | -2.28188 | 234 ft | 14 kts | 6° |
| 2026-05-06 18:42 | 53.35335 | -2.28115 | 233 ft | 15 kts | 45° |
| 2026-05-06 18:43 | 53.35415 | -2.27987 | 233 ft | 17 kts | 43° |
| 2026-05-06 18:43 | 53.35504 | -2.27844 | 233 ft | 18 kts | 45° |
| 2026-05-06 18:43 | 53.35591 | -2.27702 | 233 ft | 18 kts | 44° |
| 2026-05-06 18:43 | 53.35692 | -2.27620 | 233 ft | 9 kts | 347° |
| 2026-05-06 18:44 | 53.35699 | -2.27623 | 233 ft | 0 kts | 345° |
| 2026-05-06 18:45 | 53.35703 | -2.27625 | 233 ft | 2 kts | 345° |
| 2026-05-06 18:45 | 53.35752 | -2.27653 | 234 ft | 9 kts | 336° |
| 2026-05-06 18:45 | 53.35804 | -2.27719 | 233 ft | 11 kts | 315° |
| 2026-05-06 18:45 | 53.35869 | -2.27736 | 233 ft | 10 kts | 4° |
| 2026-05-06 18:46 | 53.35947 | -2.27723 | 233 ft | 11 kts | 5° |
| 2026-05-06 18:46 | 53.36017 | -2.27746 | 233 ft | 11 kts | 324° |
| 2026-05-06 18:46 | 53.36068 | -2.27845 | 233 ft | 11 kts | 309° |
| 2026-05-06 18:46 | 53.36117 | -2.27929 | 233 ft | 9 kts | 316° |
| 2026-05-06 18:47 | 53.36172 | -2.28012 | 233 ft | 13 kts | 324° |
| 2026-05-06 18:47 | 53.36237 | -2.28113 | 233 ft | 12 kts | 314° |
| 2026-05-06 18:47 | 53.36292 | -2.28209 | 233 ft | 11 kts | 314° |
| 2026-05-06 18:47 | 53.36341 | -2.28293 | 233 ft | 9 kts | 314° |
| 2026-05-06 18:48 | 53.36385 | -2.28368 | 233 ft | 10 kts | 314° |
| 2026-05-06 18:48 | 53.36449 | -2.28484 | 233 ft | 13 kts | 306° |
| 2026-05-06 18:48 | 53.36504 | -2.28585 | 233 ft | 11 kts | 316° |
| 2026-05-06 18:48 | 53.36554 | -2.28671 | 233 ft | 9 kts | 310° |
| 2026-05-06 18:49 | 53.36585 | -2.28759 | 233 ft | 8 kts | 313° |
| 2026-05-06 18:49 | 53.36638 | -2.28769 | 235 ft | 8 kts | 27° |
| 2026-05-06 18:49 | 53.36674 | -2.28710 | 233 ft | 6 kts | 45° |
| 2026-05-06 18:49 | 53.36676 | -2.28662 | 233 ft | 4 kts | 133° |
| 2026-05-06 18:50 | 53.36660 | -2.28636 | 233 ft | 2 kts | 136° |